• Join FlightAware (Why Join?)
  • Login
  • US Flag 
10:36AM EDT


 

Airport Tracker/Info


-or-


 

Live Flight TrackerFlight Track Log ✈ CTL18 ✈ 14-May-2013 ✈ KYIP - KBKL

Flight Track Log - Related Links

Times and Time Zones

All times are in EDT time to prevent confusion due to time zone crossing. See the CTL18 flight status page for this flight to view local times or setup timezone preferences in your user account.

Time Position Orientation Groundspeed Altitude Reporting Facility
EDT Latitude Longitude Course Direction KTS MPH feet Rate Location/Type
09:00PM 42.2664 -83.5211 351° North 138 159 1,700  Level Cleveland Center
09:01PM 42.2694 -83.5633 276° West 131 151 2,400 600 Climbing Cleveland Center
09:02PM 42.2394 -83.5956 218° Southwest 137 158 2,900 240 Climbing Cleveland Center
09:03PM 42.1992 -83.6131 198° South 166 191 3,000  Climbing Cleveland Center
09:04PM 42.1517 -83.6053 173° South 172 198 3,000  Level Cleveland Center
09:05PM 42.1017 -83.5944 171° South 173 199 3,000 -60 Level Cleveland Center
09:06PM 42.0633 -83.5481 138° Southeast 185 213 2,900  Descending Cleveland Center
09:07PM 42.0464 -83.4828 109° East 185 213 3,000  Climbing Cleveland Center
09:08PM 42.0292 -83.4150 109° East 184 212 3,000  Level Cleveland Center
09:09PM 42.0097 -83.3553 114° Southeast 188 216 3,000 60 Level Cleveland Center
09:10PM 41.9883 -83.2903 114° Southeast 185 213 3,200 240 Climbing Cleveland Center
09:11PM 41.9711 -83.2308 111° Southeast 170 196 3,500 300 Climbing Cleveland Center
09:12PM 41.9556 -83.1744 110° East 170 196 3,900 360 Climbing Cleveland Center
09:13PM 41.9344 -83.1036 112° Southeast 173 199 4,300 360 Climbing Cleveland Center
09:14PM 41.9189 -83.0472 110° East 174 200 4,700 360 Climbing Cleveland Center
09:15PM 41.9078 -82.9828 103° East 177 204 5,000 180 Climbing Cleveland Center
09:16PM 41.8917 -82.9486 122° Southeast 187 215 5,000  Level Cleveland Center
09:18PM 41.8608 -82.8331 110° East 190 219 5,000  Level Cleveland Center
09:18PM 41.8492 -82.7908 110° East 191 220 5,000  Level Cleveland Center
09:19PM 41.8275 -82.7206 112° Southeast 190 219 5,000  Level Cleveland Center
09:20PM 41.8078 -82.6558 112° Southeast 190 219 5,000 -60 Level Cleveland Center
09:21PM 41.7842 -82.5797 113° Southeast 193 222 4,900 -240 Descending Cleveland Center
09:23PM 41.7603 -82.5067 114° Southeast 199 229 4,600 -360 Descending Cleveland Center
09:23PM 41.7467 -82.4589 111° Southeast 200 230 4,300 -480 Descending Cleveland Center
09:24PM 41.7208 -82.3747 112° Southeast 202 232 3,700 -480 Descending Cleveland Center
09:25PM 41.7031 -82.3075 109° East 202 232 3,300 -420 Descending Cleveland Center
09:26PM 41.6831 -82.2431 113° Southeast 197 227 3,000 -180 Descending Cleveland Center
09:27PM 41.6633 -82.1786 112° Southeast 178 205 3,000  Level Cleveland Center
09:28PM 41.6453 -82.1142 111° Southeast 181 208 3,000  Level Cleveland Center
09:29PM 41.6253 -82.0553 114° Southeast 177 204 3,100  Climbing Cleveland Center
09:30PM 41.6072 -81.9911 111° Southeast 180 207 3,000 -180 Descending Cleveland Center
09:31PM 41.5894 -81.9297 111° Southeast 184 212 2,800 -360 Descending Cleveland Center
09:32PM 41.5756 -81.8656 106° East 182 209 2,300 -540 Descending Cleveland Center
09:33PM 41.5575 -81.8014 111° Southeast 165 190 1,800 -300 Descending Cleveland Center
09:34PM 41.5517 -81.7483 98° East 144 166 1,700 -300 Descending Cleveland Center
09:35PM 41.5481 -81.6983 95° East 128 147 1,300 -420 Descending Cleveland Center
09:36PM 41.5294 -81.6678 129° Southeast 91 105 900 -420 Descending Cleveland Center
09:38PM 41.5167 -81.6667 124° Southeast  Level FlightAware Approximate
09:45PM 41.5175 -81.6833 124° Southeast  Level Estimated